createdAt,value
2023-08-11T00:00:09.969Z,10.85
2023-08-11T00:02:59.602Z,16.70
2023-08-11T00:05:28.071Z,9.48
2023-08-11T00:07:56.449Z,10.38
2023-08-11T00:10:26.785Z,12.38
2023-08-11T00:12:55.214Z,11.68
2023-08-11T00:15:23.614Z,17.17
2023-08-11T00:17:51.961Z,14.07
2023-08-11T00:20:22.053Z,10.80
2023-08-11T00:22:49.997Z,13.15
2023-08-11T00:25:18.469Z,14.20
2023-08-11T00:27:46.545Z,16.63
2023-08-11T00:30:14.890Z,9.65
2023-08-11T00:32:43.018Z,12.23
2023-08-11T00:35:12.164Z,16.10
2023-08-11T00:37:41.453Z,15.50
2023-08-11T00:40:10.637Z,14.05
2023-08-11T00:42:38.833Z,11.45
2023-08-11T00:45:08.469Z,13.85
2023-08-11T00:47:36.855Z,11.73
2023-08-11T00:50:05.905Z,13.00
2023-08-11T00:52:34.210Z,9.70
2023-08-11T00:55:04.563Z,11.88
2023-08-11T00:57:32.560Z,10.10
2023-08-11T01:00:01.758Z,10.77
2023-08-11T01:02:30.448Z,12.73
2023-08-11T01:05:10.013Z,11.02
2023-08-11T01:07:42.535Z,10.40
2023-08-11T01:12:49.233Z,9.52
2023-08-11T01:15:20.805Z,10.10
2023-08-11T01:17:51.972Z,9.60
2023-08-11T01:20:20.300Z,9.90
2023-08-11T01:22:50.192Z,12.98
2023-08-11T01:25:20.013Z,11.43
2023-08-11T01:27:50.389Z,12.43
2023-08-11T01:30:18.399Z,10.48
2023-08-11T01:32:47.024Z,10.73
2023-08-11T01:35:19.764Z,15.40
2023-08-11T01:37:57.881Z,11.18
2023-08-11T01:40:28.040Z,12.82
2023-08-11T01:42:58.194Z,10.85
2023-08-11T01:45:28.210Z,13.63
2023-08-11T01:47:56.925Z,10.88
2023-08-11T01:50:25.994Z,18.10
2023-08-11T01:52:55.322Z,12.25
2023-08-11T01:55:25.830Z,9.27
2023-08-11T01:57:59.929Z,10.63
2023-08-11T02:00:29.303Z,11.68
2023-08-11T02:03:00.224Z,12.27
2023-08-11T02:05:28.729Z,10.10
2023-08-11T02:07:57.409Z,11.27
2023-08-11T02:10:25.957Z,11.40
2023-08-11T02:12:55.731Z,12.38
2023-08-11T02:15:24.179Z,12.48
2023-08-11T02:17:52.639Z,11.48
2023-08-11T02:20:23.300Z,10.50
2023-08-11T02:22:52.903Z,11.43
2023-08-11T02:25:21.417Z,10.90
2023-08-11T02:27:50.208Z,9.85
2023-08-11T02:30:20.386Z,10.45
2023-08-11T02:32:48.906Z,14.30
2023-08-11T02:35:18.230Z,10.20
2023-08-11T02:37:47.135Z,11.68
2023-08-11T02:40:15.953Z,12.65
2023-08-11T02:42:46.443Z,10.55
2023-08-11T02:45:14.870Z,11.40
2023-08-11T02:47:44.600Z,12.70
2023-08-11T02:50:14.438Z,9.73
2023-08-11T02:52:42.966Z,9.80
2023-08-11T02:55:12.492Z,11.50
2023-08-11T02:57:40.860Z,11.02
2023-08-11T03:00:14.227Z,10.85
2023-08-11T03:02:47.417Z,10.15
2023-08-11T03:05:16.783Z,11.95
2023-08-11T03:07:45.322Z,10.10
2023-08-11T03:10:13.752Z,8.13
2023-08-11T03:12:42.128Z,13.52
2023-08-11T03:15:11.321Z,11.15
2023-08-11T03:17:39.816Z,9.85
2023-08-11T03:20:14.080Z,9.18
2023-08-11T03:22:43.585Z,9.43
2023-08-11T03:25:13.122Z,8.80
2023-08-11T03:27:43.409Z,13.50
2023-08-11T03:30:13.691Z,10.50
2023-08-11T03:32:42.575Z,11.95
2023-08-11T03:35:12.371Z,10.63
2023-08-11T03:37:40.782Z,9.25
2023-08-11T03:40:14.219Z,11.02
2023-08-11T03:42:43.266Z,16.83
2023-08-11T03:45:13.932Z,10.45
2023-08-11T03:47:43.215Z,10.77
2023-08-11T03:50:13.815Z,9.48
2023-08-11T03:52:42.838Z,11.95
2023-08-11T03:55:11.816Z,9.70
2023-08-11T03:57:40.370Z,8.57
2023-08-11T04:00:12.671Z,12.07
2023-08-11T04:02:41.277Z,9.23
2023-08-11T04:05:11.234Z,10.85
2023-08-11T04:07:41.417Z,9.90
2023-08-11T04:10:12.783Z,8.60
2023-08-11T04:12:41.339Z,10.43
2023-08-11T04:15:09.995Z,10.35
2023-08-11T04:17:38.812Z,9.35
2023-08-11T04:20:13.764Z,11.25
2023-08-11T04:22:43.840Z,12.05
2023-08-11T04:25:13.395Z,8.98
2023-08-11T04:27:41.870Z,10.90
2023-08-11T04:30:10.977Z,10.23
2023-08-11T04:32:39.528Z,9.23
2023-08-11T04:35:08.940Z,10.90
2023-08-11T04:37:37.289Z,8.80
2023-08-11T04:40:10.740Z,9.38
2023-08-11T04:42:39.161Z,11.23
2023-08-11T04:45:08.128Z,8.75
2023-08-11T04:47:36.527Z,9.43
2023-08-11T04:50:04.918Z,8.95
2023-08-11T04:52:33.665Z,9.02
2023-08-11T04:55:01.819Z,9.60
2023-08-11T04:57:31.530Z,7.70
2023-08-11T04:59:59.633Z,10.73
2023-08-11T05:02:28.036Z,9.75
2023-08-11T05:04:56.278Z,10.82
2023-08-11T05:07:24.655Z,10.48
2023-08-11T05:09:52.935Z,8.85
2023-08-11T05:12:21.365Z,13.07
2023-08-11T05:14:50.746Z,9.88
2023-08-11T05:17:19.038Z,11.05
2023-08-11T05:19:47.178Z,9.60
2023-08-11T05:22:15.515Z,13.57
2023-08-11T05:24:43.673Z,12.05
2023-08-11T05:27:12.796Z,12.20
2023-08-11T05:29:40.906Z,10.07
2023-08-11T05:32:11.494Z,11.00
2023-08-11T05:34:39.705Z,11.27
2023-08-11T05:37:09.187Z,7.78
2023-08-11T05:39:40.362Z,10.15
2023-08-11T05:42:09.495Z,11.32
2023-08-11T05:44:37.541Z,7.47
2023-08-11T05:47:07.653Z,11.68
2023-08-11T05:49:37.468Z,6.60
2023-08-11T05:52:06.111Z,11.25
2023-08-11T05:54:34.106Z,8.07
2023-08-11T05:57:02.623Z,9.55
2023-08-11T05:59:30.586Z,7.95
2023-08-11T06:01:58.860Z,9.25
2023-08-11T06:04:27.217Z,9.95
2023-08-11T06:06:56.775Z,6.97
2023-08-11T06:09:25.103Z,7.53
2023-08-11T06:11:53.581Z,15.25
2023-08-11T06:14:21.821Z,8.52
2023-08-11T06:16:50.112Z,6.97
2023-08-11T06:19:18.489Z,7.38
2023-08-11T06:21:47.354Z,11.13
2023-08-11T06:24:16.799Z,7.97
2023-08-11T06:26:45.693Z,7.05
2023-08-11T06:29:13.729Z,7.35
2023-08-11T06:31:43.969Z,6.60
2023-08-11T06:34:12.397Z,7.85
2023-08-11T06:36:40.687Z,8.25
2023-08-11T06:39:08.907Z,8.50
2023-08-11T06:41:39.536Z,6.00
2023-08-11T06:44:07.784Z,6.32
2023-08-11T06:46:36.308Z,7.35
2023-08-11T06:49:04.790Z,5.90
2023-08-11T06:51:33.033Z,9.32
2023-08-11T06:54:01.089Z,7.78
2023-08-11T06:56:29.637Z,6.07
2023-08-11T06:58:58.985Z,8.68
2023-08-11T07:01:28.290Z,8.80
2023-08-11T07:03:57.189Z,6.35
2023-08-11T07:06:26.755Z,6.57
2023-08-11T07:08:54.757Z,7.18
2023-08-11T07:11:23.279Z,7.00
2023-08-11T07:13:51.245Z,9.77
2023-08-11T07:16:20.962Z,7.72
2023-08-11T07:18:49.603Z,6.53
2023-08-11T07:21:17.882Z,7.93
2023-08-11T07:23:45.855Z,7.35
2023-08-11T07:26:14.356Z,10.20
2023-08-11T07:28:42.488Z,5.95
2023-08-11T07:31:10.827Z,5.38
2023-08-11T07:33:41.187Z,5.60
2023-08-11T07:36:09.475Z,6.63
2023-08-11T07:38:37.677Z,8.98
2023-08-11T07:41:06.259Z,7.10
2023-08-11T07:43:34.213Z,8.00
2023-08-11T07:46:02.847Z,5.68
2023-08-11T07:48:31.121Z,6.45
2023-08-11T07:51:00.936Z,7.07
2023-08-11T07:53:28.977Z,7.35
2023-08-11T07:55:57.490Z,6.40
2023-08-11T07:58:25.493Z,6.53
2023-08-11T08:00:53.744Z,6.20
2023-08-11T08:03:21.903Z,6.82
2023-08-11T08:05:50.420Z,5.70
2023-08-11T08:08:19.822Z,5.28
2023-08-11T08:10:48.475Z,9.30
2023-08-11T08:13:17.718Z,5.35
2023-08-11T08:15:46.045Z,4.82
2023-08-11T08:18:14.148Z,6.28
2023-08-11T08:20:42.573Z,6.47
2023-08-11T08:23:13.463Z,4.80
2023-08-11T08:25:43.592Z,7.82
2023-08-11T08:28:13.209Z,6.47
2023-08-11T08:30:42.292Z,8.57
2023-08-11T08:33:10.808Z,4.28
2023-08-11T08:35:39.571Z,6.05
2023-08-11T08:38:07.618Z,5.97
2023-08-11T08:40:37.001Z,6.40
2023-08-11T08:43:06.889Z,6.47
2023-08-11T08:45:36.988Z,5.07
2023-08-11T08:48:08.427Z,5.53
2023-08-11T08:50:37.387Z,7.22
2023-08-11T08:53:05.621Z,6.85
2023-08-11T08:55:34.149Z,8.85
2023-08-11T08:58:02.362Z,7.00
2023-08-11T09:00:34.166Z,7.05
2023-08-11T09:03:03.033Z,3.38
2023-08-11T09:05:32.094Z,8.20
2023-08-11T09:08:00.048Z,4.07
2023-08-11T09:10:30.148Z,5.40
2023-08-11T09:12:58.273Z,3.63
2023-08-11T09:15:26.647Z,4.40
2023-08-11T09:17:56.210Z,6.38
2023-08-11T09:20:26.377Z,5.28
2023-08-11T09:22:54.337Z,6.88
2023-08-11T09:25:22.814Z,3.55
2023-08-11T09:27:51.866Z,2.35
2023-08-11T09:30:21.028Z,3.15
2023-08-11T09:32:50.302Z,2.92
2023-08-11T09:35:25.563Z,2.88
2023-08-11T09:37:54.682Z,3.88
2023-08-11T09:40:23.508Z,6.65
2023-08-11T09:42:51.623Z,6.20
2023-08-11T09:45:20.760Z,3.17
2023-08-11T09:47:48.919Z,3.42
2023-08-11T09:50:17.270Z,4.15
2023-08-11T09:52:47.320Z,3.22
2023-08-11T09:55:15.941Z,1.92
2023-08-11T09:57:45.782Z,1.60
2023-08-11T10:00:15.122Z,4.57
2023-08-11T10:02:48.180Z,3.63
2023-08-11T10:05:18.217Z,2.53
2023-08-11T10:07:49.243Z,4.28
2023-08-11T10:10:20.086Z,2.25
2023-08-11T10:12:50.681Z,2.17
2023-08-11T10:15:22.541Z,4.93
2023-08-11T10:17:50.765Z,3.33
2023-08-11T10:20:19.274Z,3.55
2023-08-11T10:22:48.848Z,3.63
2023-08-11T10:25:17.968Z,3.13
2023-08-11T10:27:46.627Z,5.53
2023-08-11T10:30:16.556Z,3.33
2023-08-11T10:32:44.534Z,5.32
2023-08-11T10:35:19.015Z,6.32
2023-08-11T10:37:58.039Z,2.85
2023-08-11T10:40:27.212Z,9.00
2023-08-11T10:42:55.169Z,2.40
2023-08-11T10:45:23.411Z,8.27
2023-08-11T10:47:55.131Z,4.05
2023-08-11T10:50:24.717Z,3.38
2023-08-11T10:53:08.608Z,5.38
2023-08-11T10:55:37.217Z,5.13
2023-08-11T10:58:12.691Z,4.35
2023-08-11T11:00:42.456Z,3.70
2023-08-11T11:03:12.412Z,4.18
2023-08-11T11:05:44.059Z,3.72
2023-08-11T11:08:13.454Z,4.22
2023-08-11T11:10:50.070Z,4.85
2023-08-11T11:13:19.536Z,3.88
2023-08-11T11:15:48.006Z,4.10
2023-08-11T11:18:16.056Z,3.72
2023-08-11T11:20:44.366Z,4.88
2023-08-11T11:23:13.805Z,3.05
2023-08-11T11:25:42.090Z,2.67
2023-08-11T11:28:10.416Z,2.10
2023-08-11T11:30:39.563Z,4.85
2023-08-11T11:33:08.212Z,1.90
2023-08-11T11:35:36.676Z,4.03
2023-08-11T11:38:07.417Z,2.92
2023-08-11T11:40:37.786Z,2.75
2023-08-11T11:43:05.977Z,2.28
2023-08-11T11:45:34.882Z,2.22
2023-08-11T11:48:03.043Z,2.42
2023-08-11T11:50:31.527Z,1.88
2023-08-11T11:52:59.524Z,2.50
2023-08-11T11:55:28.079Z,2.42
2023-08-11T11:57:59.475Z,4.10
2023-08-11T12:00:28.850Z,2.05
2023-08-11T12:02:57.135Z,2.45
2023-08-11T12:05:26.148Z,2.90
2023-08-11T12:07:54.156Z,1.65
2023-08-11T12:10:32.565Z,4.35
2023-08-11T12:13:04.311Z,4.88
2023-08-11T12:15:33.448Z,2.08
2023-08-11T12:18:04.388Z,1.45
2023-08-11T12:20:32.872Z,4.63
2023-08-11T12:23:01.312Z,2.38
2023-08-11T12:25:29.701Z,4.93
2023-08-11T12:27:58.045Z,3.70
2023-08-11T12:30:27.735Z,2.13
2023-08-11T12:32:55.797Z,1.83
2023-08-11T12:35:24.816Z,4.70
2023-08-11T12:37:53.144Z,3.00
2023-08-11T12:40:23.178Z,3.33
2023-08-11T12:42:52.897Z,2.80
2023-08-11T12:45:21.591Z,3.63
2023-08-11T12:47:51.164Z,3.00
2023-08-11T12:50:20.001Z,1.75
2023-08-11T12:52:47.986Z,1.73
2023-08-11T12:55:17.955Z,2.47
2023-08-11T12:57:47.536Z,1.85
2023-08-11T13:00:18.018Z,3.72
2023-08-11T13:02:47.597Z,2.03
2023-08-11T13:05:17.939Z,4.35
2023-08-11T13:07:45.930Z,4.80
2023-08-11T13:10:14.277Z,2.22
2023-08-11T13:12:45.872Z,1.95
2023-08-11T13:15:14.280Z,3.15
2023-08-11T13:17:45.600Z,1.95
2023-08-11T13:20:14.457Z,3.05
2023-08-11T13:22:44.001Z,2.13
2023-08-11T13:25:12.807Z,1.60
2023-08-11T13:27:43.772Z,4.47
2023-08-11T13:30:13.814Z,3.72
2023-08-11T13:32:43.072Z,4.47
2023-08-11T13:35:13.032Z,1.63
2023-08-11T13:37:42.737Z,1.95
2023-08-11T13:40:12.148Z,2.60
2023-08-11T13:42:43.071Z,2.67
2023-08-11T13:45:12.416Z,3.28
2023-08-11T13:47:40.725Z,3.58
2023-08-11T13:50:10.208Z,3.20
2023-08-11T13:52:38.162Z,4.07
2023-08-11T13:55:10.757Z,2.47
2023-08-11T13:57:39.396Z,2.20
2023-08-11T14:00:12.955Z,2.28
2023-08-11T14:02:41.162Z,3.60
2023-08-11T14:05:10.035Z,8.02
2023-08-11T14:07:38.135Z,2.17
2023-08-11T14:10:09.145Z,3.10
2023-08-11T14:12:37.191Z,2.63
2023-08-11T14:15:06.335Z,3.47
2023-08-11T14:17:34.609Z,2.63
2023-08-11T14:20:03.393Z,5.15
2023-08-11T14:22:31.542Z,2.00
2023-08-11T14:25:00.020Z,2.10
2023-08-11T14:27:29.466Z,3.05
2023-08-11T14:29:57.727Z,2.00
2023-08-11T14:32:26.806Z,3.97
2023-08-11T14:34:55.479Z,3.47
2023-08-11T14:37:23.653Z,3.47
2023-08-11T14:39:52.024Z,4.63
2023-08-11T14:42:20.230Z,2.05
2023-08-11T14:44:49.806Z,3.38
2023-08-11T14:47:17.812Z,2.30
2023-08-11T14:49:46.600Z,1.83
2023-08-11T14:52:15.164Z,4.50
2023-08-11T14:54:43.976Z,3.88
2023-08-11T14:57:14.071Z,1.90
2023-08-11T14:59:42.992Z,2.80
2023-08-11T15:02:12.533Z,1.85
2023-08-11T15:04:41.357Z,3.10
2023-08-11T15:07:09.344Z,3.45
2023-08-11T15:09:37.665Z,3.00
2023-08-11T15:12:06.539Z,2.38
2023-08-11T15:14:34.849Z,2.33
2023-08-11T15:17:02.984Z,5.00
2023-08-11T15:19:32.807Z,4.30
2023-08-11T15:22:00.804Z,3.53
2023-08-11T15:24:29.177Z,3.28
2023-08-11T15:26:57.344Z,1.90
2023-08-11T15:29:26.070Z,4.20
2023-08-11T15:31:54.932Z,4.85
2023-08-11T15:34:23.636Z,3.38
2023-08-11T15:36:53.406Z,2.63
2023-08-11T15:39:22.010Z,14.18
2023-08-11T15:41:50.131Z,2.67
2023-08-11T15:44:21.507Z,4.68
2023-08-11T15:46:51.267Z,2.55
2023-08-11T15:49:19.653Z,3.40
2023-08-11T15:51:47.659Z,3.55
2023-08-11T15:54:17.282Z,3.22
2023-08-11T15:56:45.335Z,2.42
2023-08-11T15:59:13.567Z,6.10
2023-08-11T16:01:44.239Z,4.00
2023-08-11T16:04:18.532Z,3.20
2023-08-11T16:06:46.566Z,7.38
2023-08-11T16:09:14.790Z,2.45
2023-08-11T16:11:45.793Z,5.13
2023-08-11T16:16:42.378Z,13.30
2023-08-11T16:19:10.715Z,3.75
2023-08-11T16:21:39.440Z,3.33
2023-08-11T16:24:07.857Z,3.28
2023-08-11T16:26:35.842Z,4.60
2023-08-11T16:29:05.601Z,3.63
2023-08-11T16:31:34.124Z,3.75
2023-08-11T16:34:04.358Z,4.22
2023-08-11T16:36:32.444Z,2.47
2023-08-11T16:39:00.825Z,2.15
2023-08-11T16:41:29.171Z,3.85
2023-08-11T16:43:57.411Z,3.03
2023-08-11T16:46:26.807Z,7.22
2023-08-11T16:48:55.250Z,2.35
2023-08-11T16:51:23.250Z,4.15
2023-08-11T16:53:51.729Z,4.68
2023-08-11T16:56:20.720Z,4.88
2023-08-11T16:58:49.074Z,6.00
2023-08-11T17:01:17.116Z,3.90
2023-08-11T17:03:47.067Z,3.25
2023-08-11T17:06:20.444Z,4.57
2023-08-11T17:08:50.135Z,3.85
2023-08-11T17:11:18.547Z,4.72
2023-08-11T17:13:48.395Z,7.80
2023-08-11T17:16:17.118Z,4.00
2023-08-11T17:18:50.458Z,2.88
2023-08-11T17:21:19.973Z,2.35
2023-08-11T17:23:48.595Z,2.63
2023-08-11T17:26:17.066Z,3.65
2023-08-11T17:28:45.579Z,6.45
2023-08-11T17:31:13.608Z,6.72
2023-08-11T17:33:41.958Z,6.93
2023-08-11T17:36:11.515Z,4.50
2023-08-11T17:38:40.076Z,4.70
2023-08-11T17:41:08.087Z,10.23
2023-08-11T17:43:36.518Z,8.30
2023-08-11T17:46:04.578Z,7.82
2023-08-11T17:48:33.040Z,9.27
2023-08-11T17:51:01.028Z,6.68
2023-08-11T17:53:31.136Z,7.53
2023-08-11T17:55:59.238Z,4.07
2023-08-11T17:58:28.161Z,3.63
2023-08-11T18:00:58.373Z,8.02
2023-08-11T18:03:26.726Z,3.70
2023-08-11T18:05:54.975Z,3.60
2023-08-11T18:08:23.303Z,4.13
2023-08-11T18:10:52.628Z,3.78
2023-08-11T18:13:21.571Z,7.90
2023-08-11T18:15:49.723Z,3.47
2023-08-11T18:18:18.076Z,6.43
2023-08-11T18:20:46.294Z,5.32
2023-08-11T18:23:14.629Z,7.97
2023-08-11T18:25:42.609Z,4.70
2023-08-11T18:28:12.295Z,7.07
2023-08-11T18:30:41.012Z,6.15
2023-08-11T18:33:09.337Z,3.50
2023-08-11T18:35:37.706Z,2.63
2023-08-11T18:38:06.231Z,6.82
2023-08-11T18:40:34.462Z,3.33
2023-08-11T18:43:02.786Z,4.72
2023-08-11T18:45:32.280Z,5.20
2023-08-11T18:48:02.555Z,5.47
2023-08-11T18:50:30.709Z,7.47
2023-08-11T18:52:59.120Z,9.10
2023-08-11T18:55:27.576Z,5.88
2023-08-11T18:57:55.977Z,7.05
2023-08-11T19:00:24.265Z,8.30
2023-08-11T19:02:54.151Z,5.32
2023-08-11T19:05:22.530Z,7.72
2023-08-11T19:07:51.000Z,9.50
2023-08-11T19:10:19.300Z,5.50
2023-08-11T19:12:47.710Z,7.80
2023-08-11T19:15:15.847Z,9.32
2023-08-11T19:17:44.199Z,11.25
2023-08-11T19:20:14.361Z,10.43
2023-08-11T19:22:43.093Z,7.35
2023-08-11T19:25:12.497Z,8.63
2023-08-11T19:27:40.989Z,8.98
2023-08-11T19:30:10.293Z,17.63
2023-08-11T19:32:39.076Z,8.57
2023-08-11T19:35:08.038Z,7.85
2023-08-11T19:37:38.772Z,9.77
2023-08-11T19:40:07.902Z,7.30
2023-08-11T19:42:36.221Z,12.00
2023-08-11T19:45:04.748Z,11.48
2023-08-11T19:47:33.285Z,9.43
2023-08-11T19:50:01.407Z,8.45
2023-08-11T19:52:29.769Z,8.82
2023-08-11T19:54:59.089Z,8.13
2023-08-11T19:57:27.379Z,9.90
2023-08-11T19:59:55.346Z,11.10
2023-08-11T20:02:23.973Z,8.10
2023-08-11T20:04:52.154Z,9.73
2023-08-11T20:07:20.973Z,9.73
2023-08-11T20:09:49.097Z,8.90
2023-08-11T20:12:18.763Z,12.43
2023-08-11T20:14:48.591Z,9.85
2023-08-11T20:17:17.041Z,7.20
2023-08-11T20:19:45.214Z,10.50
2023-08-11T20:22:13.514Z,8.57
2023-08-11T20:24:41.577Z,12.27
2023-08-11T20:27:10.204Z,10.70
2023-08-11T20:29:39.958Z,10.35
2023-08-11T20:32:08.419Z,7.65
2023-08-11T20:34:36.400Z,10.32
2023-08-11T20:37:05.298Z,10.90
2023-08-11T20:39:33.358Z,8.95
2023-08-11T20:42:03.533Z,11.35
2023-08-11T20:44:32.767Z,8.25
2023-08-11T20:47:02.687Z,8.63
2023-08-11T20:49:30.689Z,13.90
2023-08-11T20:52:01.109Z,9.68
2023-08-11T20:54:29.267Z,9.45
2023-08-11T20:57:01.575Z,10.38
2023-08-11T21:01:59.500Z,12.60
2023-08-11T21:04:28.847Z,12.75
2023-08-11T21:06:57.607Z,8.75
2023-08-11T21:09:25.629Z,9.43
2023-08-11T21:11:56.451Z,10.73
2023-08-11T21:14:24.597Z,7.78
2023-08-11T21:16:53.047Z,11.95
2023-08-11T21:19:21.013Z,7.88
2023-08-11T21:21:50.653Z,6.35
2023-08-11T21:24:18.632Z,8.55
2023-08-11T21:26:47.093Z,7.97
2023-08-11T21:29:15.542Z,7.55
2023-08-11T21:31:43.997Z,5.90
2023-08-11T21:34:12.118Z,8.20
2023-08-11T21:36:40.662Z,6.38
2023-08-11T21:39:10.995Z,13.57
2023-08-11T21:41:39.869Z,8.98
2023-08-11T21:44:08.180Z,8.57
2023-08-11T21:46:36.468Z,9.80
2023-08-11T21:49:04.576Z,10.77
2023-08-11T21:51:33.105Z,11.15
2023-08-11T21:54:01.155Z,9.40
2023-08-11T21:56:30.497Z,13.82
2023-08-11T21:58:58.852Z,8.18
2023-08-11T22:01:26.823Z,9.10
2023-08-11T22:03:55.093Z,7.15
2023-08-11T22:06:23.262Z,8.55
2023-08-11T22:08:51.526Z,9.57
2023-08-11T22:11:35.450Z,7.13
2023-08-11T22:14:06.769Z,10.10
2023-08-11T22:16:35.198Z,6.93
2023-08-11T22:19:03.632Z,7.57
2023-08-11T22:21:31.631Z,9.15
2023-08-11T22:24:00.142Z,8.73
2023-08-11T22:26:28.140Z,8.02
2023-08-11T22:28:56.422Z,10.02
2023-08-11T22:31:26.168Z,14.30
2023-08-11T22:33:54.487Z,7.78
2023-08-11T22:36:22.449Z,7.32
2023-08-11T22:38:50.839Z,7.82
2023-08-11T22:41:18.772Z,10.55
2023-08-11T22:43:47.044Z,9.32
2023-08-11T22:46:15.263Z,9.95
2023-08-11T22:48:45.169Z,9.07
2023-08-11T22:51:13.100Z,7.13
2023-08-11T22:53:41.368Z,9.27
2023-08-11T22:56:09.723Z,7.35
2023-08-11T22:58:37.973Z,8.60
2023-08-11T23:01:05.982Z,6.30
2023-08-11T23:03:34.548Z,8.55
2023-08-11T23:06:05.207Z,7.10
2023-08-11T23:08:33.562Z,7.95
2023-08-11T23:11:01.649Z,6.55
2023-08-11T23:13:29.931Z,8.15
2023-08-11T23:15:57.922Z,7.53
2023-08-11T23:18:26.363Z,7.15
2023-08-11T23:20:54.538Z,8.63
2023-08-11T23:23:24.276Z,6.13
2023-08-11T23:25:52.421Z,9.02
2023-08-11T23:28:22.274Z,8.05
2023-08-11T23:30:50.285Z,9.43
2023-08-11T23:33:18.730Z,10.88
2023-08-11T23:35:47.036Z,10.13
2023-08-11T23:38:16.102Z,10.50
2023-08-11T23:40:45.607Z,10.88
2023-08-11T23:43:13.943Z,9.68
2023-08-11T23:45:41.889Z,12.88
2023-08-11T23:48:10.314Z,10.15
2023-08-11T23:50:38.490Z,9.00
2023-08-11T23:53:06.941Z,10.63
2023-08-11T23:55:36.914Z,8.60
2023-08-11T23:58:06.666Z,7.82
